Time;durP1;ratioP1;P1;durP2;ratioP2;P2;SDS_P1;SDS_P2;PMS_P1;PMS_P2;Temp;Humidity;BMP_temperature;BMP_pressure;BME280_temperature;BME280_humidity;BME280_pressure;Samples;Min_cycle;Max_cycle;Signal;HPM_P1;HPM_P2
2024/01/10 06:12:38;;;;;;;;;;;;;;;-4.19;100.00;100767.44;1813083;78;20086;-74
2024/01/10 06:15:07;;;;;;;;;;;;;;;-4.13;100.00;100771.77;1815298;78;20121;-76
2024/01/10 06:17:34;;;;;;;;;;;;;;;-4.08;100.00;100763.38;1817953;78;20156;-73
2024/01/10 06:20:23;;;;;;;;;;;;;;;-3.99;100.00;100763.04;1816116;78;20131;-77
2024/01/10 06:22:57;;;;;;;;;;;;;;;-3.92;100.00;100755.94;1811336;78;20435;-75
2024/01/10 06:25:21;;;;;;;;;;;;;;;-3.82;100.00;100756.09;1829316;78;20152;-71
2024/01/10 06:27:48;;;;;;;;;;;;;;;-3.74;100.00;100761.30;1800552;80;20105;-74
2024/01/10 06:32:46;;;;;;;;;;;;;;;-3.61;100.00;100766.98;1819187;78;20232;-71
2024/01/10 06:35:14;;;;;;;;;;;;;;;-3.56;100.00;100769.14;1810687;78;20170;-65
2024/01/10 06:37:44;;;;;;;;;;;;;;;-3.51;100.00;100779.39;1820930;78;20152;-66
2024/01/10 06:40:16;;;;;;;;;;;;;;;-3.44;100.00;100779.91;1815667;78;20110;-68
2024/01/10 06:42:43;;;;;;;;;;;;;;;-3.40;100.00;100787.61;1817268;78;20445;-76
2024/01/10 06:45:11;;;;;;;;;;;;;;;-3.32;100.00;100804.67;1816407;78;20131;-72
2024/01/10 06:47:38;;;;;;;;;;;;;;;-3.26;100.00;100806.88;1802973;78;20125;-67
2024/01/10 06:50:06;;;;;;;;;;;;;;;-3.20;100.00;100798.47;1811955;78;20143;-65
2024/01/10 06:52:33;;;;;;;;;;;;;;;-3.15;100.00;100792.56;1815112;78;20179;-70
2024/01/10 06:54:59;;;;;;;;;;;;;;;-3.10;100.00;100804.08;1832875;78;20171;-69
2024/01/10 06:57:26;;;;;;;;;;;;;;;-3.08;100.00;100794.77;1832780;78;20104;-70
2024/01/10 06:59:53;;;;;;;;;;;;;;;-3.03;100.00;100792.70;1833067;78;20106;-72
2024/01/10 07:02:19;;;;;;;;;;;;;;;-2.98;100.00;100798.27;1832708;78;20148;-72
2024/01/10 07:04:48;;;;;;;;;;;;;;;-2.93;100.00;100793.66;1823175;78;20146;-70
2024/01/10 07:29:45;;;;;;;;;;;;;;;-2.56;100.00;100776.17;1789276;79;20110;-77
2024/01/10 07:32:13;;;;;;;;;;;;;;;-2.53;100.00;100777.06;1808427;79;20162;-84
2024/01/10 07:34:39;;;;;;;;;;;;;;;-2.49;100.00;100777.95;1820203;79;20141;-76
2024/01/10 07:37:06;;;;;;;;;;;;;;;-2.44;100.00;100766.09;1809539;79;20126;-75
2024/01/10 07:39:32;;;;;;;;;;;;;;;-2.40;100.00;100769.92;1788524;80;20593;-79
2024/01/10 07:42:02;;;;;;;;;;;;;;;-2.35;100.00;100768.69;1791014;79;20194;-80
2024/01/10 07:44:28;;;;;;;;;;;;;;;-2.31;100.00;100767.02;1804262;79;20144;-77
2024/01/10 07:46:55;;;;;;;;;;;;;;;-2.27;100.00;100771.30;1798378;79;20187;-80
2024/01/10 07:49:21;;;;;;;;;;;;;;;-2.23;100.00;100767.94;1801495;79;20163;-66
2024/01/10 07:51:48;;;;;;;;;;;;;;;-2.17;100.00;100765.44;1793426;79;20186;-72
2024/01/10 07:54:14;;;;;;;;;;;;;;;-2.10;100.00;100767.19;1798120;79;20151;-78
2024/01/10 07:56:41;;;;;;;;;;;;;;;-2.04;100.00;100759.16;1798188;79;20129;-83
2024/01/10 07:59:08;;;;;;;;;;;;;;;-1.97;100.00;100762.58;1797917;79;20103;-72
2024/01/10 08:01:34;;;;;;;;;;;;;;;-1.92;100.00;100760.91;1793418;79;20130;-81
2024/01/10 08:04:01;;;;;;;;;;;;;;;-1.88;100.00;100772.00;1789860;79;20268;-73
2024/01/10 08:06:28;;;;;;;;;;;;;;;-1.86;100.00;100772.86;1793803;79;20126;-69
2024/01/10 08:08:54;;;;;;;;;;;;;;;-1.85;100.00;100770.31;1798834;79;20243;-77
2024/01/10 10:54:08;;;;;;;;;;;;;;;0.19;100.00;100782.64;1800019;78;20433;-64
2024/01/10 10:56:35;;;;;;;;;;;;;;;0.19;100.00;100783.92;1806370;78;20125;-70
2024/01/10 10:59:01;;;;;;;;;;;;;;;0.16;100.00;100778.38;1822304;78;20094;-67
2024/01/10 11:01:28;;;;;;;;;;;;;;;0.16;100.00;100777.52;1827825;78;20926;-73
2024/01/10 11:03:57;;;;;;;;;;;;;;;0.19;100.00;100777.52;1812598;78;20487;-77
2024/01/10 11:06:23;;;;;;;;;;;;;;;0.17;100.00;100775.39;1796512;79;20505;-72
2024/01/10 11:08:57;;;;;;;;;;;;;;;0.17;100.00;100781.80;1735976;81;20961;-71
2024/01/10 11:11:47;;;;;;;;;;;;;;;0.16;100.00;100778.80;1751533;82;20153;-79
2024/01/10 11:14:23;;;;;;;;;;;;;;;0.14;100.00;100779.23;1751350;81;20130;-73
2024/01/10 11:17:14;;;;;;;;;;;;;;;0.11;100.00;100782.65;1749102;81;20138;-81
2024/01/10 11:20:09;;;;;;;;;;;;;;;0.08;100.00;100784.36;1750599;81;20270;-78
2024/01/10 11:22:55;;;;;;;;;;;;;;;0.09;100.00;100792.47;1751280;81;20138;-82
2024/01/10 11:25:29;;;;;;;;;;;;;;;0.11;100.00;100783.08;1736190;82;20196;-75
2024/01/10 11:27:54;;;;;;;;;;;;;;;0.11;100.00;100784.36;1751765;80;20397;-77
2024/01/10 11:30:40;;;;;;;;;;;;;;;0.11;100.00;100789.48;1751802;81;20157;-73
2024/01/10 11:33:32;;;;;;;;;;;;;;;0.10;100.00;100784.78;1753302;81;20091;-83
2024/01/10 11:36:13;;;;;;;;;;;;;;;0.11;100.00;100784.36;1750316;82;20122;-83
2024/01/10 11:38:46;;;;;;;;;;;;;;;0.13;100.00;100785.21;1752870;82;20176;-77
2024/01/10 11:41:14;;;;;;;;;;;;;;;0.15;100.00;100789.91;1753018;81;20177;-75
2024/01/10 11:43:41;;;;;;;;;;;;;;;0.15;100.00;100787.34;1753247;82;20099;-77
2024/01/10 11:46:08;;;;;;;;;;;;;;;0.17;100.00;100785.63;1753032;82;20131;-77
2024/01/10 11:48:35;;;;;;;;;;;;;;;0.17;100.00;100777.52;1714841;82;20409;-79
2024/01/10 11:51:01;;;;;;;;;;;;;;;0.20;100.00;100783.06;1723694;82;20095;-71
2024/01/10 11:53:42;;;;;;;;;;;;;;;0.17;100.00;100783.92;1732723;81;20165;-71
2024/01/10 11:56:15;;;;;;;;;;;;;;;0.14;100.00;100784.36;1774024;79;20098;-68
2024/01/10 11:58:55;;;;;;;;;;;;;;;0.13;100.00;100789.91;1794605;80;20386;-75
2024/01/10 12:01:22;;;;;;;;;;;;;;;0.14;100.00;100785.63;1794911;80;20092;-78
2024/01/10 12:03:51;;;;;;;;;;;;;;;0.13;100.00;100788.63;1795123;80;20103;-72
2024/01/10 12:06:20;;;;;;;;;;;;;;;0.13;100.00;100785.21;1794896;80;20112;-68
2024/01/10 12:08:46;;;;;;;;;;;;;;;0.13;100.00;100786.06;1807994;79;20130;-71
2024/01/10 12:11:12;;;;;;;;;;;;;;;0.14;100.00;100796.73;1811439;79;20555;-70
2024/01/10 12:13:39;;;;;;;;;;;;;;;0.16;100.00;100795.45;1811083;79;20149;-67
2024/01/10 12:16:05;;;;;;;;;;;;;;;0.15;100.00;100785.63;1807472;79;20107;-66
2024/01/10 12:18:32;;;;;;;;;;;;;;;0.17;100.00;100795.88;1805133;79;20103;-71
2024/01/10 12:20:58;;;;;;;;;;;;;;;0.19;100.00;100790.33;1811360;79;20113;-69
2024/01/10 12:23:30;;;;;;;;;;;;;;;0.16;100.00;100777.09;1810506;79;20427;-67
2024/01/10 12:25:53;;;;;;;;;;;;;;;0.19;100.00;100790.33;1810805;79;20130;-67
2024/01/10 12:28:19;;;;;;;;;;;;;;;0.17;100.00;100791.61;1803426;79;20102;-69
2024/01/10 12:30:46;;;;;;;;;;;;;;;0.16;100.00;100792.46;1809962;79;20177;-68
2024/01/10 12:33:13;;;;;;;;;;;;;;;0.15;100.00;100792.46;1772732;79;20152;-67
2024/01/10 12:35:42;;;;;;;;;;;;;;;0.15;100.00;100797.58;1781731;79;20137;-65
2024/01/10 12:38:07;;;;;;;;;;;;;;;0.14;100.00;100799.30;1810934;79;20126;-72
2024/01/10 12:40:34;;;;;;;;;;;;;;;0.11;100.00;100797.16;1805651;79;20149;-68
2024/01/10 12:43:04;;;;;;;;;;;;;;;0.08;100.00;100794.60;1792447;80;20094;-73
2024/01/10 12:45:32;;;;;;;;;;;;;;;0.04;100.00;100793.75;1796618;79;20105;-68
2024/01/10 12:47:58;;;;;;;;;;;;;;;-0.03;100.00;100790.38;1798854;79;20106;-64
2024/01/10 12:50:25;;;;;;;;;;;;;;;-0.05;100.00;100790.80;1782615;79;20096;-68
2024/01/10 12:52:52;;;;;;;;;;;;;;;-0.07;100.00;100791.66;1791814;79;20102;-71
2024/01/10 12:55:18;;;;;;;;;;;;;;;-0.07;100.00;100787.81;1794855;79;20426;-74
2024/01/10 12:57:45;;;;;;;;;;;;;;;-0.08;100.00;100783.55;1788553;79;20105;-66
2024/01/10 13:00:14;;;;;;;;;;;;;;;-0.10;100.00;100785.25;1811240;79;20364;-68
2024/01/10 13:02:41;;;;;;;;;;;;;;;-0.12;100.00;100785.25;1811002;79;20141;-68
2024/01/10 13:05:09;;;;;;;;;;;;;;;-0.13;100.00;100783.55;1791051;79;20532;-69
2024/01/10 13:07:36;;;;;;;;;;;;;;;-0.13;100.00;100776.30;1799917;79;20201;-73
2024/01/10 13:10:03;;;;;;;;;;;;;;;-0.15;100.00;100770.32;1787254;79;20156;-76
2024/01/10 13:12:30;;;;;;;;;;;;;;;-0.15;100.00;100778.00;1805916;79;20099;-79
2024/01/10 13:14:57;;;;;;;;;;;;;;;-0.16;100.00;100772.03;1807291;79;20181;-81
2024/01/10 13:17:24;;;;;;;;;;;;;;;-0.18;100.00;100773.73;1786819;79;20137;-76
2024/01/10 13:19:51;;;;;;;;;;;;;;;-0.21;100.00;100768.62;1790519;79;20137;-77
2024/01/10 13:22:19;;;;;;;;;;;;;;;-0.22;100.00;100766.91;1797950;79;20106;-75
2024/01/10 13:24:46;;;;;;;;;;;;;;;-0.21;100.00;100766.48;1793885;79;20126;-70
2024/01/10 13:27:12;;;;;;;;;;;;;;;-0.22;100.00;100773.31;1801985;79;20104;-74
2024/01/10 13:29:40;;;;;;;;;;;;;;;-0.23;100.00;100776.72;1800014;79;20171;-79
2024/01/10 13:32:07;;;;;;;;;;;;;;;-0.25;100.00;100771.17;1791933;79;20118;-75
2024/01/10 13:34:34;;;;;;;;;;;;;;;-0.28;100.00;100760.94;1796603;79;20177;-73
2024/01/10 13:37:02;;;;;;;;;;;;;;;-0.33;100.00;100763.49;1799937;79;20106;-71
2024/01/10 13:39:28;;;;;;;;;;;;;;;-0.36;100.00;100765.63;1789172;79;20112;-78
2024/01/10 13:41:55;;;;;;;;;;;;;;;-0.38;100.00;100764.77;1793036;79;20114;-69
2024/01/10 13:44:21;;;;;;;;;;;;;;;-0.40;100.00;100761.36;1797020;79;20117;-73
2024/01/10 13:46:50;;;;;;;;;;;;;;;-0.43;100.00;100769.48;1789254;79;20105;-79
2024/01/10 13:49:16;;;;;;;;;;;;;;;-0.45;100.00;100771.19;1790416;79;20086;-78
2024/01/10 13:51:44;;;;;;;;;;;;;;;-0.46;100.00;100778.44;1789365;79;20112;-78
2024/01/10 13:54:10;;;;;;;;;;;;;;;-0.52;100.00;100774.59;1769043;81;20093;-75
2024/01/10 13:56:39;;;;;;;;;;;;;;;-0.55;100.00;100781.84;1772752;79;20124;-80
2024/01/10 13:59:05;;;;;;;;;;;;;;;-0.58;100.00;100781.83;1806867;79;20149;-81
2024/01/10 14:01:31;;;;;;;;;;;;;;;-0.59;100.00;100789.50;1793849;79;20179;-79
2024/01/10 14:03:58;;;;;;;;;;;;;;;-0.63;100.00;100786.52;1794061;79;20470;-76
2024/01/10 14:06:25;;;;;;;;;;;;;;;-0.65;100.00;100786.94;1791289;79;20139;-76
2024/01/10 14:08:53;;;;;;;;;;;;;;;-0.67;100.00;100789.48;1808805;79;20090;-78
2024/01/10 14:11:19;;;;;;;;;;;;;;;-0.69;100.00;100792.47;1792143;79;20414;-78
2024/01/10 14:13:46;;;;;;;;;;;;;;;-0.72;100.00;100796.30;1795728;79;20135;-72
2024/01/10 14:16:12;;;;;;;;;;;;;;;-0.74;100.00;100795.02;1790644;79;20392;-80
2024/01/10 14:18:39;;;;;;;;;;;;;;;-0.74;100.00;100792.87;1797623;79;20130;-73
2024/01/10 14:21:05;;;;;;;;;;;;;;;-0.76;100.00;100794.58;1796597;79;20102;-80
2024/01/10 14:23:31;;;;;;;;;;;;;;;-0.77;100.00;100793.73;1793683;79;20183;-70
2024/01/10 14:25:59;;;;;;;;;;;;;;;-0.77;100.00;100795.42;1806764;79;20114;-78
2024/01/10 14:28:26;;;;;;;;;;;;;;;-0.79;100.00;100786.47;1793201;79;20125;-72
2024/01/10 14:30:53;;;;;;;;;;;;;;;-0.81;100.00;100792.47;1790084;79;20092;-75
2024/01/10 14:33:19;;;;;;;;;;;;;;;-0.83;100.00;100796.72;1795682;79;20112;-75
2024/01/10 14:35:46;;;;;;;;;;;;;;;-0.86;100.00;100792.87;1789334;79;20145;-78
2024/01/10 14:38:12;;;;;;;;;;;;;;;-0.88;100.00;100799.69;1790936;79;20089;-80
2024/01/10 14:40:39;;;;;;;;;;;;;;;-0.90;100.00;100793.72;1791964;79;20102;-71
2024/01/10 14:43:05;;;;;;;;;;;;;;;-0.93;100.00;100790.73;1763752;79;20123;-79
2024/01/10 14:45:32;;;;;;;;;;;;;;;-0.96;100.00;100786.88;1793310;79;20133;-81
2024/01/10 14:47:58;;;;;;;;;;;;;;;-1.00;100.00;100772.38;1755731;79;20116;-81
2024/01/10 14:50:25;;;;;;;;;;;;;;;-1.04;100.00;100785.58;1792892;79;20094;-79
2024/01/10 14:52:52;;;;;;;;;;;;;;;-1.06;100.00;100790.25;1751156;81;20158;-80
2024/01/10 14:55:18;;;;;;;;;;;;;;;-1.09;100.00;100791.09;1786508;79;20395;-84
